Time;durP1;ratioP1;P1;durP2;ratioP2;P2;SDS_P1;SDS_P2;PMS_P1;PMS_P2;Temp;Humidity;BMP_temperature;BMP_pressure;BME280_temperature;BME280_humidity;BME280_pressure;Samples;Min_cycle;Max_cycle;Signal;HPM_P1;HPM_P2
2022/11/18 00:01:15;;;;;;;6.13;3.00;;;10.10;74.20;;;;;;5043054;28;20268;-71
2022/11/18 00:03:42;;;;;;;4.93;3.20;;;10.10;75.70;;;;;;5048602;28;20412;-70
2022/11/18 00:06:14;;;;;;;4.27;3.03;;;10.10;71.10;;;;;;5051123;28;20538;-74
2022/11/18 00:08:39;;;;;;;5.53;2.97;;;10.10;75.50;;;;;;5045757;28;20961;-71
2022/11/18 00:11:07;;;;;;;5.87;2.80;;;10.10;74.50;;;;;;5047665;28;20446;-72
2022/11/18 00:16:16;;;;;;;4.27;2.60;;;10.10;70.40;;;;;;5050142;28;20900;-71
2022/11/18 00:18:42;;;;;;;5.43;2.50;;;10.10;74.40;;;;;;5049276;28;20491;-71
2022/11/18 00:21:10;;;;;;;4.77;2.80;;;10.10;76.50;;;;;;5046636;28;20181;-72
2022/11/18 00:23:36;;;;;;;4.33;3.03;;;10.10;77.00;;;;;;5048644;28;20325;-69
2022/11/18 00:26:03;;;;;;;4.70;3.20;;;10.10;68.70;;;;;;5041548;28;20467;-72
2022/11/18 00:28:30;;;;;;;7.13;2.97;;;10.10;71.40;;;;;;5036007;28;20227;-71
2022/11/18 00:31:04;;;;;;;5.53;2.87;;;10.10;64.00;;;;;;5041999;28;20428;-71
2022/11/18 00:33:30;;;;;;;6.10;2.70;;;10.10;69.30;;;;;;5046578;28;20566;-72
2022/11/18 00:35:56;;;;;;;6.67;2.70;;;10.20;69.00;;;;;;5043644;28;20448;-72
2022/11/18 00:38:22;;;;;;;4.63;2.20;;;10.20;63.60;;;;;;5040919;28;20451;-72
2022/11/18 00:40:48;;;;;;;4.80;2.40;;;;;;;;;;5046765;28;20173;-71
2022/11/18 00:43:13;;;;;;;2.83;2.40;;;10.30;63.90;;;;;;5045684;28;20552;-72
2022/11/18 00:45:39;;;;;;;6.73;2.77;;;10.40;57.50;;;;;;5043253;28;20177;-72
2022/11/18 00:48:04;;;;;;;3.97;2.40;;;10.40;63.00;;;;;;5046949;28;20212;-71
2022/11/18 00:50:32;;;;;;;3.80;2.53;;;10.40;58.40;;;;;;5042019;28;20173;-73
2022/11/18 00:52:57;;;;;;;5.73;2.57;;;10.40;60.40;;;;;;5039739;28;20181;-70
2022/11/18 00:55:23;;;;;;;3.80;2.30;;;10.50;56.90;;;;;;5046680;28;20518;-71
2022/11/18 00:57:48;;;;;;;3.40;2.27;;;10.40;58.80;;;;;;5048952;28;20246;-71
2022/11/18 01:00:14;;;;;;;7.13;2.40;;;10.50;57.70;;;;;;5032175;28;20303;-71
2022/11/18 01:02:39;;;;;;;7.27;2.27;;;10.50;61.10;;;;;;5042549;28;20169;-72
2022/11/18 01:05:05;;;;;;;5.60;2.60;;;10.50;56.10;;;;;;5042041;28;20244;-72
2022/11/18 01:07:31;;;;;;;3.80;2.03;;;10.50;61.70;;;;;;5030795;28;20193;-71
2022/11/18 01:09:57;;;;;;;4.47;2.40;;;10.50;58.60;;;;;;5030688;28;20663;-72
2022/11/18 01:15:07;;;;;;;4.10;2.13;;;10.50;58.10;;;;;;5038939;28;20192;-71
2022/11/18 01:17:32;;;;;;;3.00;2.30;;;10.50;57.90;;;;;;5038165;28;20771;-72
2022/11/18 01:19:58;;;;;;;4.30;2.50;;;10.50;59.60;;;;;;5049113;28;20591;-71
2022/11/18 01:22:24;;;;;;;6.97;2.10;;;10.50;62.20;;;;;;5050597;28;20181;-73
2022/11/18 01:24:49;;;;;;;4.00;2.40;;;10.60;57.90;;;;;;5048381;28;20185;-72
2022/11/18 01:27:15;;;;;;;5.93;2.73;;;10.60;58.20;;;;;;5048784;28;20216;-73
2022/11/18 01:29:40;;;;;;;9.20;2.50;;;10.60;56.50;;;;;;5050550;28;20587;-72
2022/11/18 01:32:06;;;;;;;7.07;2.57;;;10.60;52.20;;;;;;5047293;28;20213;-72
2022/11/18 01:34:31;;;;;;;2.60;2.00;;;10.60;48.40;;;;;;5046030;28;20185;-72
2022/11/18 01:36:57;;;;;;;6.03;2.20;;;10.70;48.70;;;;;;5049233;28;20696;-72
2022/11/18 01:39:23;;;;;;;7.13;2.47;;;10.60;44.70;;;;;;5044846;28;20255;-72
2022/11/18 01:41:48;;;;;;;6.10;2.20;;;10.60;49.10;;;;;;5045492;28;20185;-73
2022/11/18 01:44:51;;;;;;;8.27;2.10;;;10.60;49.60;;;;;;5037700;28;20186;-73
2022/11/18 01:47:17;;;;;;;4.50;2.30;;;10.60;44.60;;;;;;5039995;28;20295;-73
2022/11/18 01:49:43;;;;;;;3.80;2.40;;;10.70;50.40;;;;;;5042645;28;20420;-71
2022/11/18 01:52:10;;;;;;;2.80;2.30;;;10.70;53.70;;;;;;5035142;28;20453;-72
2022/11/18 01:54:40;;;;;;;5.57;2.30;;;10.70;58.70;;;;;;5037742;28;20498;-72
2022/11/18 01:57:12;;;;;;;3.80;2.40;;;10.70;54.80;;;;;;5040705;28;20975;-72
2022/11/18 01:59:41;;;;;;;3.17;2.00;;;10.80;54.40;;;;;;5048254;28;20791;-72
2022/11/18 02:02:12;;;;;;;9.33;2.37;;;10.80;48.70;;;;;;5036578;28;20526;-72
2022/11/18 02:04:44;;;;;;;3.60;2.13;;;10.80;45.30;;;;;;5040719;28;20528;-72
2022/11/18 02:07:11;;;;;;;3.27;2.10;;;10.80;42.80;;;;;;5048617;28;20474;-72
2022/11/18 02:09:37;;;;;;;4.67;2.33;;;10.70;38.60;;;;;;5049598;28;20408;-72
2022/11/18 02:12:04;;;;;;;5.03;2.70;;;10.70;43.30;;;;;;5047821;28;20497;-69
2022/11/18 02:14:35;;;;;;;3.00;2.07;;;10.60;50.20;;;;;;5043842;28;20427;-72
2022/11/18 02:17:06;;;;;;;5.97;2.40;;;10.60;51.60;;;;;;5042907;28;20459;-72
2022/11/18 02:19:47;;;;;;;6.97;2.27;;;10.60;55.60;;;;;;5032523;28;20487;-73
2022/11/18 02:22:31;;;;;;;7.90;2.50;;;10.70;49.60;;;;;;5042994;28;21703;-72
2022/11/18 02:25:31;;;;;;;3.80;2.30;;;10.60;47.60;;;;;;5039905;28;20416;-72
2022/11/18 02:28:11;;;;;;;5.77;2.40;;;10.70;47.70;;;;;;5031233;28;20435;-71
2022/11/18 02:30:46;;;;;;;5.53;2.80;;;10.70;46.40;;;;;;5040312;28;20395;-72
2022/11/18 02:33:20;;;;;;;6.37;2.50;;;10.70;43.70;;;;;;5039009;28;20489;-72
2022/11/18 02:35:53;;;;;;;11.47;2.90;;;10.70;46.90;;;;;;5040533;28;20424;-72
2022/11/18 02:38:27;;;;;;;8.27;2.83;;;10.70;38.90;;;;;;5047795;28;20447;-73
2022/11/18 02:40:57;;;;;;;5.87;2.70;;;10.70;41.50;;;;;;5038227;28;20420;-69
2022/11/18 02:43:29;;;;;;;6.20;2.33;;;10.70;43.00;;;;;;5038511;28;20438;-72
2022/11/18 02:45:59;;;;;;;8.23;2.30;;;10.70;46.30;;;;;;5036167;28;20460;-71
2022/11/18 02:48:28;;;;;;;5.33;2.40;;;10.60;38.50;;;;;;5029482;28;20432;-71
2022/11/18 02:50:55;;;;;;;4.07;2.33;;;10.60;45.00;;;;;;5043862;28;20416;-71
2022/11/18 02:53:23;;;;;;;6.83;2.90;;;10.60;43.30;;;;;;5038880;28;20473;-72
2022/11/18 02:55:50;;;;;;;3.20;2.20;;;10.50;45.60;;;;;;5047450;28;21025;-72
2022/11/18 02:58:18;;;;;;;3.93;2.50;;;10.50;49.70;;;;;;5043520;28;20449;-72
2022/11/18 03:00:51;;;;;;;4.70;2.30;;;10.50;45.00;;;;;;5035259;28;21003;-72
2022/11/18 03:03:23;;;;;;;6.20;2.50;;;10.60;48.40;;;;;;5037872;28;20501;-72
2022/11/18 03:06:12;;;;;;;4.30;2.40;;;10.50;46.70;;;;;;5047263;28;20451;-72
2022/11/18 03:08:50;;;;;;;3.70;2.23;;;10.60;45.50;;;;;;5048951;28;20469;-71
2022/11/18 03:11:22;;;;;;;3.43;2.17;;;10.50;38.50;;;;;;5045750;28;20956;-71
2022/11/18 03:13:58;;;;;;;3.43;2.37;;;10.40;48.10;;;;;;5042354;28;20940;-72
2022/11/18 03:16:31;;;;;;;7.80;2.00;;;10.30;51.60;;;;;;5051508;28;20841;-72
2022/11/18 03:19:57;;;;;;;6.20;2.17;;;10.20;54.50;;;;;;5041536;28;20495;-72
2022/11/18 03:22:33;;;;;;;4.53;2.50;;;10.10;61.80;;;;;;5037009;28;20927;-73
2022/11/18 03:25:07;;;;;;;5.10;2.20;;;10.00;70.30;;;;;;5038760;28;20426;-73
2022/11/18 03:27:38;;;;;;;3.30;2.13;;;9.90;72.80;;;;;;5052543;28;20431;-73
2022/11/18 03:30:09;;;;;;;6.40;2.30;;;9.90;77.00;;;;;;5052098;28;20427;-72
2022/11/18 03:32:41;;;;;;;4.13;2.10;;;9.90;82.50;;;;;;5041141;28;20827;-72
2022/11/18 03:35:15;;;;;;;6.50;2.80;;;9.90;77.20;;;;;;5037563;28;20447;-72
2022/11/18 03:37:43;;;;;;;3.93;2.43;;;9.80;82.30;;;;;;5049651;28;20453;-73
2022/11/18 03:40:20;;;;;;;5.33;3.00;;;9.80;85.40;;;;;;5039341;28;20467;-75
2022/11/18 03:42:52;;;;;;;3.87;2.93;;;9.80;86.60;;;;;;5040996;28;20470;-71
2022/11/18 03:45:24;;;;;;;6.17;3.07;;;;;;;;;;5036108;28;20471;-72
2022/11/18 03:48:00;;;;;;;6.00;3.20;;;9.90;84.30;;;;;;5050945;28;20917;-72
2022/11/18 03:50:30;;;;;;;6.27;3.50;;;9.80;91.10;;;;;;5049996;28;20434;-73
2022/11/18 03:52:57;;;;;;;5.03;2.90;;;9.80;91.80;;;;;;5041681;28;20647;-72
2022/11/18 03:55:29;;;;;;;7.67;3.43;;;9.80;91.60;;;;;;5042048;28;20535;-73
2022/11/18 03:58:01;;;;;;;3.63;2.60;;;9.80;92.70;;;;;;5045715;28;20487;-72
2022/11/18 04:00:32;;;;;;;3.77;2.60;;;9.80;93.50;;;;;;5051213;28;20987;-73
2022/11/18 04:02:57;;;;;;;5.40;2.43;;;9.80;93.10;;;;;;5041467;28;20859;-72
2022/11/18 04:05:23;;;;;;;12.13;1.90;;;9.80;94.90;;;;;;5039998;28;20443;-72
2022/11/18 04:07:57;;;;;;;4.10;2.07;;;9.80;92.50;;;;;;5052563;28;20545;-73
2022/11/18 04:10:36;;;;;;;6.37;2.07;;;9.80;94.20;;;;;;5050407;28;20177;-72
2022/11/18 04:13:11;;;;;;;2.67;1.50;;;9.90;94.50;;;;;;5043908;28;20408;-73
2022/11/18 04:15:38;;;;;;;2.17;1.57;;;9.80;92.60;;;;;;5046356;28;20438;-72
2022/11/18 04:18:04;;;;;;;3.87;1.43;;;9.80;93.90;;;;;;5052137;28;20408;-72
2022/11/18 04:20:31;;;;;;;5.43;1.40;;;9.80;92.40;;;;;;5048332;28;20466;-72
2022/11/18 04:22:56;;;;;;;6.03;1.60;;;9.80;93.20;;;;;;5048255;28;20232;-70
2022/11/18 04:25:23;;;;;;;1.80;1.37;;;9.80;92.40;;;;;;5042562;28;20932;-73
2022/11/18 04:27:49;;;;;;;3.10;1.83;;;9.80;90.60;;;;;;5030691;28;20182;-71
2022/11/18 04:30:15;;;;;;;1.33;1.23;;;9.80;87.80;;;;;;5042514;28;20493;-71
2022/11/18 04:32:40;;;;;;;4.23;1.40;;;9.80;91.10;;;;;;5047630;28;20482;-72
2022/11/18 04:35:06;;;;;;;3.63;1.20;;;9.70;88.20;;;;;;5046395;28;20541;-72
2022/11/18 04:37:32;;;;;;;4.13;1.23;;;9.70;83.50;;;;;;5034742;28;20280;-71
2022/11/18 04:39:57;;;;;;;2.67;1.20;;;9.70;88.50;;;;;;5045256;28;20193;-73
2022/11/18 04:42:23;;;;;;;2.17;1.33;;;9.70;87.80;;;;;;5032305;28;20264;-72
2022/11/18 04:44:48;;;;;;;2.37;1.40;;;9.70;88.60;;;;;;5047275;28;20200;-73
2022/11/18 04:47:14;;;;;;;1.60;1.20;;;9.70;84.50;;;;;;5042158;28;20292;-72
2022/11/18 04:49:39;;;;;;;3.70;1.30;;;9.70;88.00;;;;;;5050366;28;20196;-73
2022/11/18 04:52:05;;;;;;;3.17;1.23;;;9.70;90.00;;;;;;5050684;28;20242;-74
2022/11/18 04:54:31;;;;;;;3.00;1.40;;;9.60;90.10;;;;;;5038682;28;20670;-72
2022/11/18 04:56:57;;;;;;;5.07;1.30;;;9.70;93.00;;;;;;5050440;28;20224;-73
2022/11/18 04:59:25;;;;;;;1.63;1.37;;;9.60;92.60;;;;;;5036731;28;20284;-73
2022/11/18 05:01:51;;;;;;;4.03;1.40;;;9.60;94.10;;;;;;5040214;28;20166;-72
2022/11/18 05:04:22;;;;;;;3.73;1.30;;;9.60;93.40;;;;;;5038022;28;20494;-72
2022/11/18 05:06:49;;;;;;;2.00;1.03;;;9.50;91.80;;;;;;5042266;28;20945;-72
2022/11/18 05:09:15;;;;;;;4.23;1.40;;;9.50;92.40;;;;;;5050102;28;20434;-73
2022/11/18 05:14:28;;;;;;;3.63;1.57;;;9.60;96.20;;;;;;5050556;28;20937;-72
2022/11/18 05:16:55;;;;;;;3.73;1.73;;;9.60;91.70;;;;;;5039645;28;20435;-72
2022/11/18 05:19:22;;;;;;;2.47;1.50;;;9.60;95.50;;;;;;5043837;28;20494;-72
2022/11/18 05:21:47;;;;;;;1.40;0.90;;;9.60;94.70;;;;;;5031665;28;20424;-72
2022/11/18 05:24:13;;;;;;;1.63;1.10;;;9.60;92.20;;;;;;5046728;28;20442;-74
2022/11/18 05:26:38;;;;;;;4.00;1.10;;;9.60;94.90;;;;;;5047671;28;20203;-72
2022/11/18 05:29:04;;;;;;;2.50;1.40;;;9.60;92.30;;;;;;5043219;28;20215;-72
2022/11/18 05:31:30;;;;;;;2.17;1.20;;;9.60;93.40;;;;;;5048316;28;20181;-72
2022/11/18 05:33:56;;;;;;;2.03;1.10;;;9.60;94.20;;;;;;5041027;28;20185;-72
2022/11/18 05:36:21;;;;;;;3.10;1.20;;;9.60;91.50;;;;;;5048437;28;20276;-72
2022/11/18 05:38:48;;;;;;;2.30;1.20;;;9.60;94.20;;;;;;5048550;28;20821;-72
2022/11/18 05:43:09;;;;;;;2.10;1.30;;;9.60;91.70;;;;;;5040173;28;20192;-72
2022/11/18 05:44:00;;;;;;;1.27;1.00;;;9.60;92.50;;;;;;5029913;28;20677;-73
2022/11/18 05:46:26;;;;;;;3.60;1.50;;;9.60;93.70;;;;;;5047631;28;20535;-72
2022/11/18 05:48:52;;;;;;;1.70;1.13;;;9.60;92.40;;;;;;5041279;28;20421;-72
2022/11/18 05:51:18;;;;;;;1.67;1.20;;;9.60;91.20;;;;;;5046942;28;21014;-70
2022/11/18 05:53:43;;;;;;;1.20;0.90;;;9.50;86.40;;;;;;5041764;28;20266;-72
2022/11/18 05:56:24;;;;;;;1.10;0.90;;;9.40;74.70;;;;;;5048750;28;20622;-72
2022/11/18 05:58:49;;;;;;;1.50;1.00;;;9.40;79.10;;;;;;5047465;28;20703;-72
2022/11/18 06:01:22;;;;;;;1.60;1.00;;;9.40;85.20;;;;;;5048987;28;20442;-72
2022/11/18 06:03:48;;;;;;;2.17;1.20;;;9.30;82.20;;;;;;5031238;28;20636;-73
2022/11/18 06:06:19;;;;;;;2.40;1.10;;;9.40;91.10;;;;;;5041673;28;20466;-72
2022/11/18 06:08:54;;;;;;;2.63;1.50;;;9.40;90.30;;;;;;5038216;28;20600;-72
2022/11/18 06:11:20;;;;;;;2.63;1.03;;;9.40;86.20;;;;;;5048009;28;20470;-71
2022/11/18 06:14:20;;;;;;;3.10;1.20;;;9.30;90.60;;;;;;5049612;28;20906;-72
2022/11/18 06:16:51;;;;;;;3.00;1.37;;;9.30;85.50;;;;;;5025217;28;20508;-72
2022/11/18 06:19:16;;;;;;;1.53;1.20;;;9.30;90.60;;;;;;5048060;28;20455;-72
2022/11/18 06:21:43;;;;;;;2.47;2.10;;;9.30;85.30;;;;;;5048102;28;20531;-73
2022/11/18 06:24:10;;;;;;;2.50;2.30;;;9.30;87.40;;;;;;5045902;28;20223;-72
2022/11/18 06:26:36;;;;;;;2.33;2.13;;;9.30;90.40;;;;;;5042227;28;20443;-72
2022/11/18 06:29:03;;;;;;;2.33;1.80;;;9.30;87.60;;;;;;5038670;28;20427;-72
2022/11/18 06:31:29;;;;;;;1.40;1.17;;;9.20;79.30;;;;;;5046395;28;20435;-74
2022/11/18 06:33:54;;;;;;;1.37;1.10;;;9.20;86.10;;;;;;5036555;28;20443;-72
2022/11/18 06:36:20;;;;;;;2.57;1.30;;;9.20;85.00;;;;;;5045472;28;20193;-71
2022/11/18 06:38:45;;;;;;;2.20;1.33;;;9.20;91.10;;;;;;5045050;28;20749;-72
2022/11/18 06:41:10;;;;;;;2.67;1.00;;;9.20;93.30;;;;;;5049153;28;20643;-72
2022/11/18 06:43:42;;;;;;;3.97;1.10;;;9.20;90.10;;;;;;5050073;28;20177;-73
2022/11/18 06:48:55;;;;;;;1.23;1.10;;;9.20;94.40;;;;;;5045501;28;20439;-72
2022/11/18 06:51:21;;;;;;;3.30;1.40;;;9.10;91.90;;;;;;5034312;28;20420;-69
2022/11/18 06:53:47;;;;;;;1.97;1.10;;;9.10;92.20;;;;;;5030165;28;20173;-72
2022/11/18 06:56:14;;;;;;;2.10;1.60;;;9.10;96.80;;;;;;5047998;28;20279;-72
2022/11/18 06:58:40;;;;;;;2.50;1.47;;;9.20;96.20;;;;;;5048063;28;20677;-71
2022/11/18 07:01:16;;;;;;;1.17;1.00;;;9.20;98.30;;;;;;5042753;28;20474;-72
2022/11/18 07:03:44;;;;;;;3.43;1.07;;;9.20;92.80;;;;;;5028577;28;20173;-71
2022/11/18 07:06:10;;;;;;;5.03;1.10;;;9.10;93.20;;;;;;5035207;28;20411;-74
2022/11/18 07:08:37;;;;;;;2.17;1.20;;;9.10;95.90;;;;;;5046427;28;20172;-72
2022/11/18 07:11:05;;;;;;;4.40;1.20;;;9.20;98.40;;;;;;5040136;28;20433;-72
2022/11/18 07:13:32;;;;;;;3.27;1.17;;;9.20;92.30;;;;;;5046812;28;20435;-74
2022/11/18 07:16:09;;;;;;;2.87;1.30;;;9.10;92.10;;;;;;5044271;28;20565;-73
2022/11/18 07:18:37;;;;;;;4.53;1.20;;;9.10;88.90;;;;;;5044090;28;20798;-72
2022/11/18 07:21:08;;;;;;;6.40;1.10;;;9.00;92.00;;;;;;5029556;28;20438;-73
2022/11/18 07:23:34;;;;;;;1.77;1.00;;;9.00;92.50;;;;;;5029184;28;20451;-73
2022/11/18 07:26:01;;;;;;;3.17;1.20;;;9.10;91.00;;;;;;5048701;28;20539;-74
2022/11/18 07:28:27;;;;;;;3.00;1.40;;;9.10;94.00;;;;;;5044380;28;20424;-75
2022/11/18 07:30:59;;;;;;;1.60;1.30;;;9.10;93.10;;;;;;5046744;28;20419;-72
2022/11/18 07:33:24;;;;;;;2.30;1.40;;;9.10;94.10;;;;;;5037676;28;20526;-74
2022/11/18 07:35:50;;;;;;;3.33;1.43;;;9.10;90.00;;;;;;5042013;28;20457;-72
2022/11/18 07:38:15;;;;;;;2.97;1.50;;;9.10;91.80;;;;;;5048383;28;20536;-74
2022/11/18 07:40:41;;;;;;;1.97;1.60;;;9.10;88.80;;;;;;5037007;28;20501;-73
2022/11/18 07:43:07;;;;;;;1.93;1.40;;;9.00;89.00;;;;;;5043010;28;20178;-73
2022/11/18 07:45:32;;;;;;;1.73;1.50;;;9.00;90.40;;;;;;5041793;28;20539;-73
2022/11/18 07:47:58;;;;;;;2.70;1.40;;;9.00;90.90;;;;;;5047619;28;20526;-71
2022/11/18 07:50:24;;;;;;;2.70;1.40;;;9.00;92.70;;;;;;5046325;28;20201;-74
2022/11/18 07:52:53;;;;;;;3.13;1.40;;;9.10;97.80;;;;;;5046214;28;20989;-72
2022/11/18 07:55:19;;;;;;;3.30;1.30;;;9.10;95.30;;;;;;5039447;28;20224;-73
2022/11/18 07:57:44;;;;;;;1.83;1.47;;;10.00;94.60;;;;;;5043227;28;20515;-72
2022/11/18 08:00:10;;;;;;;2.80;2.27;;;9.10;91.80;;;;;;5047759;28;20223;-72
2022/11/18 08:02:36;;;;;;;1.57;1.33;;;9.10;92.00;;;;;;5043340;28;20195;-72
2022/11/18 08:05:01;;;;;;;1.47;1.37;;;9.10;93.60;;;;;;5047833;28;20185;-72
2022/11/18 08:07:27;;;;;;;2.17;1.40;;;9.10;87.60;;;;;;5043834;28;20205;-72
2022/11/18 08:09:52;;;;;;;2.40;1.47;;;9.10;92.70;;;;;;5044427;28;20268;-73
2022/11/18 08:12:18;;;;;;;3.37;1.40;;;9.10;93.20;;;;;;5039311;28;20646;-72
2022/11/18 08:14:43;;;;;;;1.90;1.20;;;9.10;94.40;;;;;;5052456;28;20258;-72
2022/11/18 08:17:09;;;;;;;2.33;1.27;;;9.20;93.80;;;;;;5047426;28;20205;-73
2022/11/18 08:19:34;;;;;;;1.30;1.20;;;9.20;95.40;;;;;;5042612;28;20212;-73
2022/11/18 08:22:00;;;;;;;2.13;1.40;;;9.20;95.00;;;;;;5044086;28;20218;-73
2022/11/18 08:24:25;;;;;;;2.50;1.43;;;9.20;95.40;;;;;;5038977;28;20277;-73
2022/11/18 08:26:50;;;;;;;2.90;1.40;;;9.20;91.10;;;;;;5045745;28;20208;-72
2022/11/18 08:29:16;;;;;;;1.90;1.37;;;9.20;94.10;;;;;;5045449;28;20189;-73
2022/11/18 08:31:42;;;;;;;1.90;1.23;;;9.20;96.20;;;;;;5042929;28;20665;-73
2022/11/18 08:34:07;;;;;;;3.73;1.20;;;9.10;91.10;;;;;;5044287;28;20181;-73
2022/11/18 08:36:35;;;;;;;2.23;1.70;;;9.10;93.20;;;;;;5041650;28;20201;-73
2022/11/18 08:39:03;;;;;;;1.63;1.30;;;9.20;97.60;;;;;;5044713;28;20197;-74
2022/11/18 08:41:36;;;;;;;3.50;1.33;;;9.20;91.30;;;;;;5046808;28;20436;-73
2022/11/18 08:44:04;;;;;;;1.67;1.50;;;9.20;91.50;;;;;;5043030;28;20439;-75
2022/11/18 08:46:29;;;;;;;2.53;1.50;;;9.20;92.50;;;;;;5039672;28;20541;-73
2022/11/18 08:48:56;;;;;;;2.97;1.60;;;9.30;94.80;;;;;;5049497;28;20606;-74
2022/11/18 08:51:21;;;;;;;1.70;1.30;;;9.30;96.50;;;;;;5049978;28;20181;-72
2022/11/18 08:53:47;;;;;;;1.40;1.30;;;9.30;93.80;;;;;;5050739;28;20418;-74
2022/11/18 08:56:18;;;;;;;3.20;1.50;;;9.30;94.20;;;;;;5050479;28;20212;-72
2022/11/18 08:58:44;;;;;;;1.67;1.40;;;9.40;96.90;;;;;;5041293;28;20205;-73
2022/11/18 09:01:10;;;;;;;15.07;1.70;;;9.50;99.30;;;;;;5037395;28;20529;-72
2022/11/18 09:03:35;;;;;;;1.97;1.60;;;9.60;98.00;;;;;;5040331;28;20242;-74
2022/11/18 09:06:19;;;;;;;2.30;1.70;;;9.80;92.20;;;;;;5049320;28;20487;-72
2022/11/18 09:08:45;;;;;;;2.70;1.80;;;9.80;92.80;;;;;;5043482;28;20559;-72
2022/11/18 09:11:13;;;;;;;1.57;1.40;;;9.70;93.00;;;;;;5049371;28;20447;-73
2022/11/18 09:13:39;;;;;;;1.90;1.70;;;9.60;83.60;;;;;;5049380;28;20181;-72
2022/11/18 09:16:06;;;;;;;2.20;1.70;;;9.70;76.10;;;;;;5042371;28;20534;-72
2022/11/18 09:18:32;;;;;;;3.13;1.77;;;9.60;80.80;;;;;;5044769;28;20232;-73
2022/11/18 09:21:06;;;;;;;3.73;1.97;;;9.70;90.60;;;;;;5040306;28;20494;-74
2022/11/18 09:23:33;;;;;;;2.53;2.00;;;9.80;90.60;;;;;;5042944;28;20419;-72
2022/11/18 09:26:02;;;;;;;2.40;1.70;;;9.90;92.20;;;;;;5044713;28;20509;-72
2022/11/18 09:28:28;;;;;;;2.90;1.70;;;9.90;91.80;;;;;;5047044;28;20420;-73
2022/11/18 09:30:54;;;;;;;3.40;2.20;;;9.90;88.00;;;;;;5049961;28;20799;-73
2022/11/18 09:33:20;;;;;;;3.13;2.00;;;9.90;89.70;;;;;;5048840;28;20190;-74
2022/11/18 09:35:45;;;;;;;3.80;2.00;;;9.80;92.60;;;;;;5046724;28;20250;-74
2022/11/18 09:38:11;;;;;;;5.40;1.90;;;9.80;95.10;;;;;;5049714;28;20423;-75
2022/11/18 09:40:49;;;;;;;2.00;1.80;;;10.00;97.30;;;;;;5047504;28;20194;-73
2022/11/18 09:43:38;;;;;;;2.10;1.73;;;10.10;92.90;;;;;;5045797;28;20223;-74
2022/11/18 09:46:25;;;;;;;3.83;2.10;;;10.20;80.10;;;;;;5013406;28;20459;-75
2022/11/18 09:51:40;;;;;;;2.30;1.70;;;10.30;83.00;;;;;;5047616;28;20454;-74
2022/11/18 09:54:10;;;;;;;2.40;2.10;;;10.20;70.20;;;;;;5041213;28;20429;-74
2022/11/18 09:56:36;;;;;;;2.23;1.80;;;10.20;84.20;;;;;;5044878;28;20947;-74
2022/11/18 09:59:03;;;;;;;2.80;2.17;;;10.30;85.00;;;;;;5039557;28;20898;-73
2022/11/18 10:01:29;;;;;;;3.50;2.30;;;10.30;90.40;;;;;;5038342;28;20455;-73
2022/11/18 10:03:55;;;;;;;2.97;2.20;;;10.50;90.60;;;;;;5042716;28;20737;-74
2022/11/18 10:06:26;;;;;;;3.50;1.87;;;10.60;80.60;;;;;;5040345;28;20520;-71
2022/11/18 10:09:02;;;;;;;2.70;2.40;;;10.50;89.90;;;;;;5040975;28;20197;-73
2022/11/18 10:11:39;;;;;;;2.27;2.03;;;10.60;84.80;;;;;;5047860;28;20493;-73
2022/11/18 10:14:38;;;;;;;2.50;2.30;;;10.50;69.70;;;;;;5039291;28;21112;-70
2022/11/18 10:17:31;;;;;;;2.20;2.00;;;10.50;86.10;;;;;;5047871;28;20459;-70
2022/11/18 10:20:22;;;;;;;3.67;2.00;;;10.50;81.40;;;;;;5045344;28;20463;-70
2022/11/18 10:23:11;;;;;;;2.70;2.17;;;10.50;85.00;;;;;;5036338;28;20488;-71
2022/11/18 10:25:37;;;;;;;2.30;2.07;;;10.60;83.60;;;;;;5037960;28;20523;-70
2022/11/18 10:28:21;;;;;;;3.13;2.23;;;10.60;88.00;;;;;;5048213;28;20502;-70
2022/11/18 10:30:46;;;;;;;4.87;3.07;;;10.70;94.30;;;;;;5041616;28;20172;-71
2022/11/18 10:33:18;;;;;;;2.77;2.30;;;10.80;80.00;;;;;;5042238;28;20930;-70
2022/11/18 10:35:44;;;;;;;4.10;2.40;;;11.00;88.30;;;;;;5042821;28;20170;-69
2022/11/18 10:38:19;;;;;;;3.90;2.43;;;11.10;90.50;;;;;;5034325;28;20512;-72
2022/11/18 10:40:56;;;;;;;2.90;2.50;;;11.20;84.20;;;;;;5044279;28;20173;-70
2022/11/18 10:43:40;;;;;;;3.23;2.40;;;11.10;70.90;;;;;;5043432;28;20773;-70
2022/11/18 10:46:31;;;;;;;6.57;2.50;;;11.00;79.50;;;;;;5033736;28;20448;-70
2022/11/18 10:49:16;;;;;;;4.30;2.40;;;11.10;82.90;;;;;;5046486;28;21025;-71
2022/11/18 10:52:03;;;;;;;3.57;2.53;;;11.20;79.10;;;;;;5041334;28;20455;-70
2022/11/18 10:54:28;;;;;;;5.77;2.53;;;11.20;76.10;;;;;;5038833;28;20490;-71
2022/11/18 10:57:19;;;;;;;4.13;2.47;;;11.10;76.10;;;;;;5046139;28;20463;-70
2022/11/18 10:59:54;;;;;;;3.40;2.90;;;11.00;78.10;;;;;;5046355;28;20270;-70
2022/11/18 11:02:29;;;;;;;3.27;2.30;;;11.10;86.30;;;;;;5040108;28;20512;-71
2022/11/18 11:04:56;;;;;;;2.93;2.60;;;11.10;69.20;;;;;;5038880;28;20443;-70
2022/11/18 11:07:24;;;;;;;3.00;2.30;;;11.00;71.90;;;;;;5047850;28;20435;-70
2022/11/18 11:10:04;;;;;;;3.63;2.83;;;11.00;76.80;;;;;;5048151;28;20438;-71
2022/11/18 11:12:36;;;;;;;3.03;2.50;;;11.10;81.30;;;;;;5042917;28;20438;-70
2022/11/18 11:15:10;;;;;;;8.43;3.00;;;11.20;83.90;;;;;;5041321;28;20406;-70
2022/11/18 11:17:42;;;;;;;3.50;2.23;;;11.10;77.30;;;;;;5046932;28;20525;-76
2022/11/18 11:20:16;;;;;;;2.50;2.30;;;11.40;92.50;;;;;;5039922;28;20521;-71
2022/11/18 11:22:43;;;;;;;3.10;2.50;;;11.50;62.60;;;;;;5045338;28;20435;-70
2022/11/18 11:25:36;;;;;;;3.10;2.33;;;11.50;68.40;;;;;;5044046;28;20432;-72
2022/11/18 11:28:09;;;;;;;4.43;2.40;;;11.50;73.50;;;;;;5032540;28;20440;-74
2022/11/18 11:30:43;;;;;;;4.93;2.20;;;11.70;73.60;;;;;;5045452;28;20419;-70
2022/11/18 11:33:35;;;;;;;4.37;2.60;;;11.70;72.60;;;;;;5040643;28;20798;-71
2022/11/18 11:36:25;;;;;;;4.30;2.60;;;11.60;68.70;;;;;;5040430;28;20451;-70
2022/11/18 11:39:14;;;;;;;4.67;1.87;;;11.70;82.00;;;;;;5039086;28;20822;-70
2022/11/18 11:41:54;;;;;;;2.87;1.80;;;11.60;58.70;;;;;;5040559;28;20408;-71
2022/11/18 11:44:47;;;;;;;3.57;1.90;;;11.50;90.20;;;;;;5045443;28;20801;-70
2022/11/18 11:47:46;;;;;;;2.40;2.00;;;11.60;61.70;;;;;;5048440;28;20486;-70
2022/11/18 11:50:18;;;;;;;4.17;2.07;;;11.50;62.80;;;;;;5048719;28;20424;-70
2022/11/18 11:53:23;;;;;;;2.83;2.30;;;11.30;68.20;;;;;;5047590;28;20464;-70
2022/11/18 11:55:48;;;;;;;3.50;2.10;;;11.20;56.90;;;;;;5052222;28;21156;-70
2022/11/18 11:58:37;;;;;;;2.97;2.23;;;11.20;64.60;;;;;;5036866;28;20544;-70
2022/11/18 12:01:36;;;;;;;9.17;2.20;;;11.10;62.00;;;;;;5041035;28;20284;-70
2022/11/18 12:04:49;;;;;;;10.00;3.10;;;11.30;65.20;;;;;;5044642;28;20798;-70
2022/11/18 12:07:21;;;;;;;4.50;2.40;;;11.50;71.20;;;;;;5027502;28;20504;-69
2022/11/18 12:10:17;;;;;;;3.83;2.00;;;11.70;55.40;;;;;;5050569;28;20461;-70
2022/11/18 12:12:57;;;;;;;5.70;2.30;;;11.90;39.50;;;;;;5041632;28;20458;-70
2022/11/18 12:15:40;;;;;;;3.40;2.10;;;12.40;40.10;;;;;;5046905;28;20451;-69
2022/11/18 12:18:25;;;;;;;3.10;2.10;;;13.00;29.50;;;;;;5049834;28;20443;-70
2022/11/18 12:20:52;;;;;;;4.43;2.30;;;13.30;18.40;;;;;;5048512;28;20436;-70
2022/11/18 12:23:26;;;;;;;2.93;2.00;;;13.30;13.70;;;;;;5037100;28;20445;-69
2022/11/18 12:26:00;;;;;;;2.27;1.60;;;13.20;11.70;;;;;;5042014;28;20447;-70
2022/11/18 12:28:34;;;;;;;3.47;1.80;;;13.20;4.90;;;;;;5036770;28;20435;-69
2022/11/18 12:31:19;;;;;;;3.20;1.90;;;13.10;8.50;;;;;;5036620;28;20437;-69
2022/11/18 12:33:57;;;;;;;2.63;1.80;;;12.90;1.00;;;;;;5046066;28;20419;-70
2022/11/18 12:36:35;;;;;;;2.10;1.90;;;12.90;12.70;;;;;;5050021;28;20516;-70
2022/11/18 12:39:23;;;;;;;2.80;1.93;;;12.90;1.00;;;;;;5046533;28;20463;-70
2022/11/18 12:44:44;;;;;;;4.40;1.87;;;13.00;1.00;;;;;;5046089;28;20411;-70
2022/11/18 12:47:15;;;;;;;3.13;1.70;;;13.20;6.30;;;;;;5038507;28;20561;-70
2022/11/18 12:49:43;;;;;;;3.83;1.85;;;13.30;1.00;;;;;;5037791;28;20814;-69
2022/11/18 12:52:27;;;;;;;2.70;1.70;;;13.20;1.00;;;;;;5046614;28;20181;-71
2022/11/18 12:54:55;;;;;;;4.33;1.90;;;12.80;1.00;;;;;;5054163;22;20415;-70
2022/11/18 12:57:23;;;;;;;2.90;1.63;;;12.80;1.00;;;;;;5048142;28;20416;-72
2022/11/18 12:59:49;;;;;;;2.10;1.70;;;12.80;1.00;;;;;;5049282;28;20459;-71
2022/11/18 13:02:22;;;;;;;5.90;1.67;;;12.80;1.00;;;;;;5039478;28;20933;-71
2022/11/18 13:05:08;;;;;;;3.03;1.87;;;12.80;1.00;;;;;;5042511;28;20176;-68
2022/11/18 13:10:33;;;;;;;2.80;1.60;;;13.10;1.00;;;;;;5028551;28;20490;-71
2022/11/18 13:12:59;;;;;;;5.00;1.70;;;13.20;1.00;;;;;;5032938;28;20436;-71
2022/11/18 13:18:16;;;;;;;3.00;2.27;;;13.30;1.00;;;;;;5029291;28;20200;-70
2022/11/18 13:20:42;;;;;;;10.80;4.40;;;13.30;1.00;;;;;;5029376;28;20510;-72
2022/11/18 13:25:53;;;;;;;2.90;2.17;;;13.30;1.00;;;;;;5030502;28;20525;-71
2022/11/18 13:28:38;;;;;;;3.20;1.80;;;13.20;1.00;;;;;;5029453;28;20527;-71
2022/11/18 13:31:21;;;;;;;3.00;1.60;;;13.10;1.00;;;;;;5022766;28;20899;-71
2022/11/18 13:33:47;;;;;;;2.80;1.50;;;13.10;1.00;;;;;;5028819;28;20862;-73
2022/11/18 13:36:24;;;;;;;1.87;1.40;;;12.90;1.00;;;;;;5030467;28;20950;-71
2022/11/18 13:38:55;;;;;;;6.63;1.90;;;12.80;1.00;;;;;;5028070;28;20489;-73